Time;durP1;ratioP1;P1;durP2;ratioP2;P2;SDS_P1;SDS_P2;PMS_P1;PMS_P2;Temp;Humidity;BMP_temperature;BMP_pressure;BME280_temperature;BME280_humidity;BME280_pressure;Samples;Min_cycle;Max_cycle;Signal;HPM_P1;HPM_P2
2022/12/16 00:01:42;;;;;;;30.02;19.45;;;-0.40;99.90;;;;;;5102557;28;20252;-79
2022/12/16 00:04:11;;;;;;;30.85;21.35;;;-0.30;1.00;;;;;;5097079;28;20235;-78
2022/12/16 00:06:39;;;;;;;32.03;18.13;;;-0.20;16.40;;;;;;5101523;27;20247;-79
2022/12/16 00:09:07;;;;;;;29.95;19.63;;;-0.30;1.00;;;;;;5096266;28;20195;-79
2022/12/16 00:11:35;;;;;;;32.40;20.33;;;-0.40;1.00;;;;;;5105942;27;20203;-78
2022/12/16 00:14:04;;;;;;;32.53;20.77;;;-0.50;1.00;;;;;;5094943;28;20247;-79
2022/12/16 00:16:32;;;;;;;34.35;21.23;;;-0.40;1.00;;;;;;5090596;28;20196;-79
2022/12/16 00:19:02;;;;;;;24.75;17.70;;;-0.30;1.00;;;;;;5092009;27;20234;-79
2022/12/16 00:21:30;;;;;;;30.27;19.60;;;-0.30;1.00;;;;;;5092210;28;20204;-78
2022/12/16 00:23:59;;;;;;;32.70;20.73;;;-0.40;1.00;;;;;;5096800;27;20663;-80
2022/12/16 00:26:28;;;;;;;30.73;19.05;;;-0.40;1.00;;;;;;5093854;28;20620;-79
2022/12/16 00:28:57;;;;;;;31.13;21.23;;;-0.40;1.00;;;;;;5092505;28;20223;-80
2022/12/16 00:31:26;;;;;;;29.05;19.65;;;-0.40;1.00;;;;;;5091808;28;20666;-75
2022/12/16 00:33:56;;;;;;;27.38;18.38;;;-0.40;99.90;;;;;;5104875;28;20209;-79
2022/12/16 00:36:26;;;;;;;33.63;20.50;;;-0.40;1.00;;;;;;5102058;28;20192;-78
2022/12/16 00:38:54;;;;;;;29.65;18.55;;;-0.30;22.00;;;;;;5104625;27;20225;-81
2022/12/16 00:41:22;;;;;;;30.75;20.02;;;-0.50;1.00;;;;;;5099338;28;20200;-78
2022/12/16 00:43:50;;;;;;;31.38;18.42;;;-0.50;1.00;;;;;;5108626;28;20221;-81
2022/12/16 00:46:18;;;;;;;31.30;19.15;;;-0.60;1.00;;;;;;5113249;27;20220;-79
2022/12/16 00:48:46;;;;;;;31.27;18.92;;;-0.40;1.00;;;;;;5110637;27;20233;-79
2022/12/16 00:51:15;;;;;;;28.85;18.48;;;-0.40;1.00;;;;;;5104582;27;20646;-80
2022/12/16 00:53:44;;;;;;;25.48;17.77;;;-0.50;99.90;;;;;;5095723;28;20741;-79
2022/12/16 00:56:14;;;;;;;30.02;18.92;;;-0.50;99.90;;;;;;5095998;28;20196;-79
2022/12/16 00:58:42;;;;;;;27.70;18.02;;;-0.60;99.90;;;;;;5094359;28;20216;-80
2022/12/16 01:01:11;;;;;;;26.65;17.33;;;-0.40;99.90;;;;;;5098674;28;20192;-79
2022/12/16 01:03:39;;;;;;;29.65;19.30;;;-0.30;98.70;;;;;;5096558;27;20275;-79
2022/12/16 01:06:10;;;;;;;31.15;19.80;;;-0.40;99.90;;;;;;5100817;27;20246;-79
2022/12/16 01:08:38;;;;;;;29.00;19.60;;;-0.60;1.00;;;;;;5097035;27;20204;-79
2022/12/16 01:11:10;;;;;;;32.10;19.88;;;-0.60;1.00;;;;;;5096166;27;20199;-79
2022/12/16 01:13:38;;;;;;;28.45;18.65;;;-0.50;1.00;;;;;;5095369;28;20278;-81
2022/12/16 01:16:07;;;;;;;27.27;19.48;;;-0.50;99.90;;;;;;5093200;28;20230;-80
2022/12/16 01:18:35;;;;;;;27.60;19.48;;;-0.60;99.90;;;;;;5094564;27;20296;-81
2022/12/16 01:21:04;;;;;;;32.92;20.90;;;-0.40;99.90;;;;;;5091791;28;20253;-80
2022/12/16 01:23:33;;;;;;;30.15;18.38;;;-0.50;1.00;;;;;;5097201;28;20646;-78
2022/12/16 01:26:02;;;;;;;35.20;20.30;;;-0.50;99.90;;;;;;5093167;28;20223;-79
2022/12/16 01:28:32;;;;;;;32.20;19.77;;;-0.60;99.90;;;;;;5093859;28;20647;-78
2022/12/16 01:31:01;;;;;;;28.42;18.67;;;-0.60;81.20;;;;;;5094710;28;20215;-80
2022/12/16 01:33:31;;;;;;;26.67;18.35;;;-0.50;99.90;;;;;;5092759;27;20261;-79
2022/12/16 01:36:01;;;;;;;31.80;18.40;;;-0.50;99.90;;;;;;5099118;27;20219;-79
2022/12/16 01:38:29;;;;;;;26.70;18.58;;;-0.60;99.90;;;;;;5095801;28;20772;-80
2022/12/16 01:40:58;;;;;;;27.55;19.65;;;-0.60;99.90;;;;;;5090989;28;20208;-80
2022/12/16 01:43:28;;;;;;;27.85;18.42;;;-0.60;1.00;;;;;;5095929;28;20207;-81
2022/12/16 01:46:01;;;;;;;26.10;18.00;;;-0.70;99.90;;;;;;5093846;28;20214;-79
2022/12/16 01:48:37;;;;;;;27.88;18.27;;;-0.60;1.00;;;;;;5093083;27;20253;-80
2022/12/16 01:51:08;;;;;;;31.73;17.92;;;-0.60;1.00;;;;;;5098616;28;20775;-79
2022/12/16 01:53:39;;;;;;;28.30;18.13;;;-0.60;99.90;;;;;;5094991;28;20206;-79
2022/12/16 01:56:07;;;;;;;27.60;18.20;;;-0.60;1.00;;;;;;5095422;27;20219;-77
2022/12/16 01:58:39;;;;;;;28.58;18.67;;;-0.60;99.90;;;;;;5095430;28;20578;-79
2022/12/16 02:01:09;;;;;;;30.20;16.48;;;-0.60;99.90;;;;;;5095053;28;20203;-79
2022/12/16 02:03:38;;;;;;;30.30;18.75;;;-0.60;99.90;;;;;;5094817;28;20205;-79
2022/12/16 02:06:07;;;;;;;25.45;17.55;;;-0.60;1.00;;;;;;5096348;28;20759;-80
2022/12/16 02:08:35;;;;;;;29.70;18.70;;;-0.60;99.90;;;;;;5095782;27;20651;-79
2022/12/16 02:11:52;;;;;;;28.25;17.98;;;-0.50;33.80;;;;;;5096618;28;20200;-80
2022/12/16 02:14:46;;;;;;;28.67;17.13;;;-0.50;65.60;;;;;;5062807;28;20230;-80
2022/12/16 02:17:22;;;;;;;28.33;18.15;;;-0.70;99.90;;;;;;5099114;28;20222;-80
2022/12/16 02:20:13;;;;;;;29.10;17.52;;;-0.70;1.00;;;;;;5090543;28;20989;-81
2022/12/16 02:22:56;;;;;;;34.95;20.08;;;-0.80;99.90;;;;;;5098023;27;20632;-81
2022/12/16 02:25:53;;;;;;;34.08;17.85;;;-0.70;1.00;;;;;;5094705;28;20219;-81
2022/12/16 02:28:40;;;;;;;30.38;18.77;;;-0.70;99.90;;;;;;5102541;28;20240;-80
2022/12/16 02:31:33;;;;;;;26.73;17.30;;;-0.70;99.90;;;;;;5100314;27;20942;-81
2022/12/16 02:34:13;;;;;;;29.63;18.73;;;-0.70;1.00;;;;;;5099025;28;20249;-81
2022/12/16 02:37:04;;;;;;;30.35;17.80;;;-0.60;1.00;;;;;;5104981;28;20249;-81
2022/12/16 02:39:37;;;;;;;26.42;17.17;;;-0.50;99.90;;;;;;5099477;28;20214;-80
2022/12/16 02:42:16;;;;;;;25.05;16.30;;;-0.50;99.90;;;;;;5103666;27;20211;-81
2022/12/16 02:44:53;;;;;;;30.23;18.90;;;-0.50;1.00;;;;;;5101219;27;20291;-82
2022/12/16 02:47:23;;;;;;;25.10;17.55;;;-0.50;99.90;;;;;;5104362;27;20291;-81
2022/12/16 02:49:53;;;;;;;29.80;19.15;;;-0.50;99.90;;;;;;5105741;27;20184;-79
2022/12/16 02:52:24;;;;;;;29.88;17.63;;;-0.70;99.90;;;;;;5101341;27;20199;-79
2022/12/16 02:54:55;;;;;;;25.75;16.98;;;-0.70;1.00;;;;;;5101065;27;20222;-76
2022/12/16 02:57:54;;;;;;;26.65;17.02;;;-0.70;1.00;;;;;;5101295;27;20208;-77
2022/12/16 03:00:24;;;;;;;26.15;18.05;;;-0.70;1.00;;;;;;5099376;27;20202;-80
2022/12/16 03:03:00;;;;;;;24.27;16.77;;;-0.50;99.90;;;;;;5098707;27;20191;-78
2022/12/16 03:05:32;;;;;;;25.88;17.08;;;-0.50;1.00;;;;;;5108303;27;20222;-80
2022/12/16 03:08:05;;;;;;;20.65;13.70;;;-0.50;99.90;;;;;;5109571;27;20325;-79
2022/12/16 03:10:37;;;;;;;28.95;15.32;;;-0.50;1.00;;;;;;5098683;28;20230;-78
2022/12/16 03:13:07;;;;;;;28.80;17.10;;;-0.60;1.00;;;;;;5102763;27;20235;-79
2022/12/16 03:15:36;;;;;;;23.60;14.35;;;-0.60;99.90;;;;;;5097548;27;20227;-75
2022/12/16 03:18:09;;;;;;;31.77;18.17;;;-0.60;99.90;;;;;;5102678;28;20195;-77
2022/12/16 03:20:43;;;;;;;23.48;15.70;;;-0.70;99.90;;;;;;5102010;27;20214;-77
2022/12/16 03:23:16;;;;;;;24.60;15.65;;;-0.60;99.90;;;;;;5101970;27;20203;-80
2022/12/16 03:25:47;;;;;;;26.85;16.65;;;-0.60;1.00;;;;;;5098527;27;20219;-79
2022/12/16 03:28:24;;;;;;;29.45;17.77;;;-0.60;1.00;;;;;;5099653;27;20188;-78
2022/12/16 03:30:59;;;;;;;26.73;16.75;;;-0.80;1.00;;;;;;5104297;28;20270;-78
2022/12/16 03:33:32;;;;;;;25.15;16.20;;;-0.80;1.00;;;;;;5098172;28;20203;-80
2022/12/16 03:36:06;;;;;;;22.67;16.08;;;-0.80;93.60;;;;;;5103214;27;20253;-80
2022/12/16 03:38:36;;;;;;;23.02;16.00;;;-0.70;15.20;;;;;;5101812;27;20195;-80
2022/12/16 03:41:06;;;;;;;25.50;16.48;;;-0.70;1.00;;;;;;5093743;27;20211;-79
2022/12/16 03:43:35;;;;;;;21.40;15.23;;;-0.60;1.00;;;;;;5097533;27;20683;-79
2022/12/16 03:46:07;;;;;;;27.63;15.38;;;-0.60;99.90;;;;;;5094558;28;20227;-78
2022/12/16 03:48:37;;;;;;;32.03;18.15;;;-0.60;99.90;;;;;;5092037;28;20269;-80
2022/12/16 03:51:05;;;;;;;27.50;16.65;;;-0.50;99.90;;;;;;5093647;27;20192;-79
2022/12/16 03:53:34;;;;;;;30.10;17.58;;;-0.60;99.90;;;;;;5090261;28;20564;-80
2022/12/16 03:56:02;;;;;;;23.95;15.95;;;-0.60;99.90;;;;;;5097168;28;20226;-79
2022/12/16 03:58:31;;;;;;;20.73;15.05;;;-0.60;99.90;;;;;;5096759;27;20646;-79
2022/12/16 04:00:59;;;;;;;23.67;15.13;;;-0.60;99.90;;;;;;5096610;28;20256;-79
2022/12/16 04:03:27;;;;;;;22.30;15.15;;;-0.70;1.00;;;;;;5097809;28;20291;-78
2022/12/16 04:05:57;;;;;;;23.48;16.13;;;-0.60;1.00;;;;;;5091334;28;20235;-79
2022/12/16 04:08:25;;;;;;;25.05;16.77;;;-0.60;1.00;;;;;;5094418;28;20280;-79
2022/12/16 04:25:14;;;;;;;22.10;14.68;;;-0.60;1.00;;;;;;5053417;28;20723;-79
2022/12/16 04:27:45;;;;;;;24.58;15.45;;;-0.50;1.00;;;;;;5086222;28;20208;-78
2022/12/16 04:30:21;;;;;;;22.10;15.52;;;-0.60;99.90;;;;;;5094705;27;20192;-79
